createdAt,value
2019-04-26T00:01:56.579Z,17.28
2019-04-26T00:04:25.669Z,17.27
2019-04-26T00:06:54.816Z,17.26
2019-04-26T00:09:37.254Z,17.26
2019-04-26T00:12:23.868Z,17.23
2019-04-26T00:15:11.034Z,17.22
2019-04-26T00:17:48.464Z,17.21
2019-04-26T00:20:17.275Z,17.20
2019-04-26T00:22:47.405Z,17.17
2019-04-26T00:25:18.627Z,17.18
2019-04-26T00:27:48.835Z,17.15
2019-04-26T00:30:19.901Z,17.14
2019-04-26T00:32:48.690Z,17.15
2019-04-26T00:35:17.797Z,17.17
2019-04-26T00:37:46.536Z,17.13
2019-04-26T00:40:18.434Z,17.10
2019-04-26T00:42:48.940Z,17.07
2019-04-26T00:45:18.813Z,17.07
2019-04-26T00:47:49.103Z,16.98
2019-04-26T00:50:17.897Z,16.94
2019-04-26T00:52:47.106Z,16.93
2019-04-26T00:55:17.651Z,16.89
2019-04-26T00:57:46.888Z,16.88
2019-04-26T01:00:18.111Z,16.87
2019-04-26T01:02:48.610Z,16.87
2019-04-26T01:05:18.980Z,16.83
2019-04-26T01:07:49.293Z,16.85
2019-04-26T01:10:18.095Z,16.82
2019-04-26T01:12:46.847Z,16.81
2019-04-26T01:15:19.864Z,16.79
2019-04-26T01:17:47.676Z,16.84
2019-04-26T01:20:19.061Z,16.82
2019-04-26T01:22:50.810Z,16.82
2019-04-26T01:25:35.179Z,16.86
2019-04-26T01:28:08.725Z,16.76
2019-04-26T01:30:38.856Z,16.58
2019-04-26T01:33:09.141Z,16.53
2019-04-26T01:35:38.423Z,16.56
2019-04-26T01:38:10.097Z,16.63
2019-04-26T01:40:41.356Z,16.62
2019-04-26T01:43:18.106Z,16.63
2019-04-26T01:45:51.339Z,16.68
2019-04-26T01:48:43.762Z,16.70
2019-04-26T01:51:15.443Z,16.63
2019-04-26T01:53:47.428Z,16.59
2019-04-26T01:56:18.064Z,16.60
2019-04-26T01:58:50.436Z,16.66
2019-04-26T02:01:23.845Z,16.69
2019-04-26T02:03:52.923Z,16.74
2019-04-26T02:06:29.164Z,16.78
2019-04-26T02:08:52.237Z,16.77
2019-04-26T02:11:21.033Z,16.77
2019-04-26T02:13:50.032Z,16.72
2019-04-26T02:16:20.217Z,16.62
2019-04-26T02:18:48.861Z,16.58
2019-04-26T02:21:22.021Z,16.58
2019-04-26T02:24:05.266Z,16.58
2019-04-26T02:26:38.623Z,16.54
2019-04-26T02:29:26.651Z,16.40
2019-04-26T02:32:00.170Z,16.18
2019-04-26T02:34:31.886Z,15.99
2019-04-26T02:37:04.398Z,15.92
2019-04-26T02:39:37.676Z,15.89
2019-04-26T02:42:12.467Z,15.89
2019-04-26T02:44:45.683Z,15.92
2019-04-26T02:47:32.569Z,15.74
2019-04-26T02:50:09.104Z,15.64
2019-04-26T02:52:49.967Z,15.64
2019-04-26T02:55:55.208Z,15.69
2019-04-26T02:58:28.293Z,15.66
2019-04-26T03:01:00.210Z,15.41
2019-04-26T03:03:31.703Z,15.37
2019-04-26T03:06:02.214Z,15.32
2019-04-26T03:08:35.276Z,15.33
2019-04-26T03:11:06.926Z,15.27
2019-04-26T03:13:43.690Z,15.28
2019-04-26T03:16:17.167Z,15.34
2019-04-26T03:18:59.220Z,15.33
2019-04-26T03:21:55.970Z,15.20
2019-04-26T03:24:43.023Z,15.05
2019-04-26T03:27:17.167Z,15.07
2019-04-26T03:30:19.244Z,15.02
2019-04-26T03:35:36.997Z,14.86
2019-04-26T03:38:10.524Z,14.87
2019-04-26T03:40:55.625Z,14.90
2019-04-26T03:43:27.239Z,14.88
2019-04-26T03:46:21.442Z,14.85
2019-04-26T03:48:55.771Z,14.81
2019-04-26T03:51:50.903Z,14.73
2019-04-26T03:54:25.509Z,14.64
2019-04-26T03:57:18.449Z,14.44
2019-04-26T03:59:51.739Z,14.53
2019-04-26T04:02:36.637Z,14.56
2019-04-26T04:05:17.977Z,14.56
2019-04-26T04:07:51.461Z,14.49
2019-04-26T04:10:24.969Z,14.37
2019-04-26T04:13:02.605Z,14.23
2019-04-26T04:15:38.588Z,14.06
2019-04-26T04:18:12.164Z,14.06
2019-04-26T04:21:07.543Z,14.11
2019-04-26T04:23:39.772Z,14.12
2019-04-26T04:26:11.312Z,14.14
2019-04-26T04:28:57.742Z,14.17
2019-04-26T04:31:29.317Z,14.18
2019-04-26T04:34:20.953Z,14.11
2019-04-26T04:36:53.643Z,14.22
2019-04-26T04:39:28.479Z,14.31
2019-04-26T04:42:21.038Z,14.39
2019-04-26T04:45:31.233Z,14.47
2019-04-26T04:48:16.359Z,14.57
2019-04-26T04:51:11.794Z,14.61
2019-04-26T04:53:47.448Z,14.67
2019-04-26T04:56:20.211Z,14.76
2019-04-26T04:58:57.814Z,14.83
2019-04-26T05:01:50.821Z,14.90
2019-04-26T05:04:41.159Z,14.34
2019-04-26T05:07:34.198Z,14.99
2019-04-26T05:10:14.713Z,15.02
2019-04-26T05:13:02.944Z,15.07
2019-04-26T05:16:09.293Z,15.08
2019-04-26T05:19:03.645Z,15.11
2019-04-26T05:21:47.267Z,15.06
2019-04-26T05:24:18.975Z,15.09
2019-04-26T05:27:06.330Z,15.15
2019-04-26T05:29:56.174Z,15.22
2019-04-26T05:32:54.654Z,15.20
2019-04-26T05:35:31.064Z,15.13
2019-04-26T05:38:02.647Z,15.17
2019-04-26T05:40:53.886Z,15.25
2019-04-26T05:43:51.824Z,15.33
2019-04-26T05:46:30.522Z,15.30
2019-04-26T05:49:09.458Z,15.37
2019-04-26T05:51:55.694Z,15.44
2019-04-26T05:54:47.188Z,15.48
2019-04-26T05:57:32.874Z,15.45
2019-04-26T06:00:41.539Z,15.36
2019-04-26T06:03:37.465Z,15.32
2019-04-26T06:06:28.846Z,15.42
2019-04-26T06:09:16.990Z,15.58
2019-04-26T06:12:01.738Z,15.74
2019-04-26T06:14:46.962Z,16.02
2019-04-26T06:17:18.177Z,16.20
2019-04-26T06:20:08.092Z,16.20
2019-04-26T06:23:00.679Z,16.33
2019-04-26T06:25:48.798Z,16.63
2019-04-26T06:28:46.980Z,16.76
2019-04-26T06:31:31.080Z,16.85
2019-04-26T06:34:28.938Z,17.04
2019-04-26T06:37:07.896Z,17.27
2019-04-26T06:40:02.326Z,17.49
2019-04-26T06:42:52.287Z,17.49
2019-04-26T07:02:34.594Z,19.73
2019-04-26T07:05:16.546Z,19.88
2019-04-26T07:08:00.260Z,19.45
2019-04-26T07:10:59.120Z,19.45
2019-04-26T07:13:50.568Z,19.38
2019-04-26T07:16:40.398Z,19.40
2019-04-26T07:19:20.402Z,19.66
2019-04-26T07:22:35.316Z,20.71
2019-04-26T07:25:23.376Z,21.67
2019-04-26T07:28:06.043Z,22.91
2019-04-26T07:30:37.367Z,23.80
2019-04-26T07:33:16.338Z,24.77
2019-04-26T07:35:50.702Z,25.35
2019-04-26T07:39:09.038Z,26.46
2019-04-26T07:42:01.705Z,26.69
2019-04-26T07:44:41.744Z,27.37
2019-04-26T07:47:52.130Z,27.88
2019-04-26T07:50:49.223Z,28.04
2019-04-26T07:53:38.613Z,28.39
2019-04-26T07:56:19.145Z,28.04
2019-04-26T07:59:08.780Z,28.64
2019-04-26T08:02:03.753Z,28.65
2019-04-26T08:04:39.333Z,28.71
2019-04-26T08:07:11.017Z,29.23
2019-04-26T08:09:41.976Z,28.77
2019-04-26T08:12:14.175Z,29.38
2019-04-26T08:14:53.585Z,29.21
2019-04-26T08:17:32.708Z,29.68
2019-04-26T08:20:28.160Z,30.05
2019-04-26T08:23:02.611Z,30.15
2019-04-26T08:25:33.824Z,30.36
2019-04-26T08:28:05.611Z,30.33
2019-04-26T08:30:40.614Z,30.47
2019-04-26T08:33:13.170Z,30.64
2019-04-26T08:35:48.373Z,31.04
2019-04-26T08:38:21.934Z,30.95
2019-04-26T08:40:46.177Z,31.24
2019-04-26T08:43:32.191Z,31.51
2019-04-26T08:46:23.732Z,31.16
2019-04-26T08:49:06.502Z,31.39
2019-04-26T08:51:37.996Z,31.22
2019-04-26T08:54:10.271Z,30.96
2019-04-26T08:56:50.667Z,30.27
2019-04-26T08:59:23.940Z,29.82
2019-04-26T09:02:12.969Z,29.62
2019-04-26T09:05:02.518Z,29.88
2019-04-26T09:07:36.482Z,30.37
2019-04-26T09:10:11.207Z,31.19
2019-04-26T09:12:44.145Z,31.75
2019-04-26T09:15:14.350Z,32.10
2019-04-26T09:17:43.040Z,31.74
2019-04-26T09:20:12.007Z,31.95
2019-04-26T09:23:03.913Z,31.21
2019-04-26T09:25:34.520Z,30.76
2019-04-26T09:28:13.813Z,29.89
2019-04-26T09:30:47.660Z,29.92
2019-04-26T09:33:18.919Z,30.69
2019-04-26T09:35:47.701Z,30.96
2019-04-26T09:38:19.652Z,31.64
2019-04-26T09:40:48.460Z,32.22
2019-04-26T09:43:25.001Z,32.31
2019-04-26T09:46:04.581Z,32.39
2019-04-26T09:48:37.695Z,32.61
2019-04-26T09:51:08.162Z,32.63
2019-04-26T09:53:39.543Z,32.73
2019-04-26T09:56:07.314Z,33.11
2019-04-26T09:58:36.007Z,33.14
2019-04-26T10:01:06.255Z,33.33
2019-04-26T10:03:35.182Z,33.71
2019-04-26T10:06:08.059Z,34.04
2019-04-26T10:08:36.066Z,34.04
2019-04-26T10:11:09.189Z,33.76
2019-04-26T10:13:37.751Z,34.37
2019-04-26T10:16:13.882Z,34.66
2019-04-26T10:18:44.247Z,33.57
2019-04-26T10:21:12.926Z,32.77
2019-04-26T10:23:41.607Z,31.90
2019-04-26T10:26:11.819Z,31.59
2019-04-26T10:28:40.590Z,31.14
2019-04-26T10:31:13.427Z,30.83
2019-04-26T10:33:42.550Z,30.59
2019-04-26T10:36:11.325Z,30.93
2019-04-26T10:38:41.638Z,30.59
2019-04-26T10:41:10.988Z,29.61
2019-04-26T10:43:43.921Z,28.63
2019-04-26T10:46:12.814Z,28.04
2019-04-26T10:48:41.549Z,27.47
2019-04-26T10:51:10.711Z,27.13
2019-04-26T10:53:45.876Z,26.72
2019-04-26T10:56:26.486Z,26.75
2019-04-26T10:59:14.973Z,26.45
2019-04-26T11:01:46.791Z,25.93
2019-04-26T11:04:15.738Z,25.52
2019-04-26T11:06:44.464Z,25.50
2019-04-26T11:09:13.250Z,25.35
2019-04-26T11:11:41.929Z,25.32
2019-04-26T11:14:12.165Z,25.17
2019-04-26T11:16:41.251Z,25.01
2019-04-26T11:19:13.694Z,24.91
2019-04-26T11:21:42.418Z,24.67
2019-04-26T11:24:15.242Z,24.27
2019-04-26T11:26:44.325Z,23.95
2019-04-26T11:29:13.025Z,23.69
2019-04-26T11:31:41.724Z,23.40
2019-04-26T11:34:10.464Z,23.15
2019-04-26T11:36:41.827Z,22.94
2019-04-26T11:39:11.609Z,22.85
2019-04-26T11:41:42.744Z,22.66
2019-04-26T11:44:11.426Z,22.57
2019-04-26T11:46:45.088Z,22.48
2019-04-26T11:49:11.937Z,22.45
2019-04-26T11:51:40.743Z,22.53
2019-04-26T11:54:09.484Z,23.02
2019-04-26T11:56:38.869Z,23.20
2019-04-26T11:59:09.575Z,23.68
2019-04-26T12:01:40.421Z,23.91
2019-04-26T12:04:25.647Z,23.82
2019-04-26T12:07:03.817Z,23.77
2019-04-26T12:09:40.131Z,23.63
2019-04-26T12:12:12.555Z,23.51
2019-04-26T12:14:39.336Z,23.67
2019-04-26T12:17:08.153Z,24.05
2019-04-26T12:19:37.211Z,24.62
2019-04-26T12:22:08.284Z,25.24
2019-04-26T12:24:38.537Z,25.22
2019-04-26T12:27:09.999Z,25.19
2019-04-26T12:29:37.705Z,25.21
2019-04-26T12:32:06.463Z,25.04
2019-04-26T12:34:35.176Z,24.99
2019-04-26T12:37:03.891Z,25.41
2019-04-26T12:39:36.764Z,25.04
2019-04-26T12:42:03.781Z,24.67
2019-04-26T12:44:36.478Z,24.40
2019-04-26T12:47:16.709Z,24.06
2019-04-26T12:49:45.401Z,23.72
2019-04-26T12:52:17.513Z,23.78
2019-04-26T12:54:44.679Z,24.19
2019-04-26T12:57:16.209Z,24.49
2019-04-26T12:59:44.660Z,24.78
2019-04-26T13:02:16.592Z,25.07
2019-04-26T13:04:44.461Z,25.36
2019-04-26T13:07:23.453Z,25.19
2019-04-26T13:09:47.703Z,24.78
2019-04-26T13:12:19.475Z,24.41
2019-04-26T13:14:58.655Z,24.06
2019-04-26T13:17:35.775Z,23.60
2019-04-26T13:20:01.383Z,23.25
2019-04-26T13:22:32.076Z,22.94
2019-04-26T13:25:00.500Z,22.75
2019-04-26T13:27:29.178Z,22.62
2019-04-26T13:30:02.440Z,22.50
2019-04-26T13:32:28.443Z,22.46
2019-04-26T13:34:57.114Z,22.27
2019-04-26T13:37:25.901Z,22.23
2019-04-26T13:39:55.166Z,22.05
2019-04-26T13:42:25.619Z,21.86
2019-04-26T13:45:01.858Z,21.66
2019-04-26T13:47:38.345Z,21.66
2019-04-26T13:50:12.264Z,21.62
2019-04-26T13:52:41.077Z,21.59
2019-04-26T13:55:10.062Z,21.54
2019-04-26T13:57:40.313Z,21.66
2019-04-26T14:00:11.708Z,21.73
2019-04-26T14:02:40.503Z,21.61
2019-04-26T14:05:15.341Z,21.65
2019-04-26T14:07:42.593Z,21.70
2019-04-26T14:10:11.452Z,21.67
2019-04-26T14:12:40.242Z,21.73
2019-04-26T14:15:10.221Z,21.74
2019-04-26T14:17:40.831Z,21.71
2019-04-26T14:20:09.759Z,21.68
2019-04-26T14:22:46.237Z,21.58
2019-04-26T14:25:16.643Z,21.40
2019-04-26T14:27:49.909Z,21.29
2019-04-26T14:30:19.059Z,21.29
2019-04-26T14:32:49.382Z,21.29
2019-04-26T14:35:19.644Z,21.29
2019-04-26T14:37:49.997Z,21.11
2019-04-26T14:40:18.835Z,21.04
2019-04-26T14:42:48.834Z,21.09
2019-04-26T14:45:23.723Z,20.98
2019-04-26T14:47:48.418Z,20.86
2019-04-26T14:50:17.667Z,20.80
2019-04-26T14:52:47.946Z,20.77
2019-04-26T14:55:21.082Z,20.81
2019-04-26T14:57:51.363Z,20.73
2019-04-26T15:00:21.142Z,20.73
2019-04-26T15:03:04.007Z,20.65
2019-04-26T15:05:54.052Z,20.52
2019-04-26T15:08:22.760Z,20.42
2019-04-26T15:11:00.995Z,20.48
2019-04-26T15:13:23.741Z,20.62
2019-04-26T15:15:52.768Z,20.86
2019-04-26T15:18:22.920Z,21.00
2019-04-26T15:20:53.077Z,21.00
2019-04-26T15:23:23.883Z,20.98
2019-04-26T15:25:52.897Z,20.99
2019-04-26T15:28:22.157Z,20.85
2019-04-26T15:30:52.754Z,20.70
2019-04-26T15:33:22.331Z,20.44
2019-04-26T15:35:52.153Z,20.24
2019-04-26T15:38:21.714Z,20.12
2019-04-26T15:41:11.054Z,19.90
2019-04-26T15:43:46.750Z,19.89
2019-04-26T15:46:23.299Z,19.71
2019-04-26T15:48:59.817Z,19.61
2019-04-26T15:51:36.265Z,19.59
2019-04-26T15:54:04.946Z,19.57
2019-04-26T15:56:33.610Z,19.46
2019-04-26T15:59:02.609Z,19.35
2019-04-26T16:01:32.522Z,19.21
2019-04-26T16:04:05.750Z,19.04
2019-04-26T16:06:32.311Z,18.87
2019-04-26T16:09:02.669Z,18.74
2019-04-26T16:11:31.316Z,18.61
2019-04-26T16:14:02.305Z,18.42
2019-04-26T16:16:34.171Z,18.40
2019-04-26T16:19:02.998Z,18.33
2019-04-26T16:21:32.332Z,18.28
2019-04-26T16:24:02.756Z,18.24
2019-04-26T16:26:32.920Z,18.18
2019-04-26T16:29:03.475Z,18.16
2019-04-26T16:34:28.692Z,18.00
2019-04-26T16:36:58.949Z,17.91
2019-04-26T16:39:32.362Z,17.90
2019-04-26T16:42:04.393Z,17.69
2019-04-26T16:44:31.401Z,17.59
2019-04-26T16:47:05.952Z,17.49
2019-04-26T16:52:07.028Z,17.41
2019-04-26T16:54:37.142Z,17.34
2019-04-26T16:57:11.138Z,17.23
2019-04-26T16:59:36.340Z,17.18
2019-04-26T17:02:05.252Z,17.13
2019-04-26T17:04:36.256Z,17.09
2019-04-26T17:07:06.305Z,17.02
2019-04-26T17:09:50.310Z,17.40
2019-04-26T17:09:54.799Z,16.99
2019-04-26T17:12:05.910Z,17.02
2019-04-26T17:14:34.681Z,16.94
2019-04-26T17:17:07.463Z,16.88
2019-04-26T17:19:37.441Z,16.81
2019-04-26T17:22:19.585Z,16.83
2019-04-26T17:24:50.366Z,16.84
2019-04-26T17:27:22.751Z,16.79
2019-04-26T17:29:52.753Z,16.72
2019-04-26T17:32:23.264Z,16.64
2019-04-26T17:34:54.433Z,16.63
2019-04-26T17:37:26.307Z,16.59
2019-04-26T17:39:55.377Z,16.55
2019-04-26T17:42:29.254Z,16.59
2019-04-26T17:44:57.557Z,16.60
2019-04-26T17:47:24.494Z,16.57
2019-04-26T17:49:53.229Z,16.49
2019-04-26T17:52:21.942Z,16.43
2019-04-26T17:54:52.033Z,16.28
2019-04-26T17:57:31.972Z,16.26
2019-04-26T17:59:51.735Z,16.18
2019-04-26T18:02:40.726Z,16.09
2019-04-26T18:05:00.464Z,15.97
2019-04-26T18:07:40.246Z,15.95
2019-04-26T18:09:57.099Z,15.89
2019-04-26T18:12:23.735Z,15.88
2019-04-26T18:14:52.436Z,15.87
2019-04-26T18:17:23.139Z,15.92
2019-04-26T18:19:54.879Z,15.91
2019-04-26T18:22:37.472Z,15.91
2019-04-26T18:25:11.117Z,15.87
2019-04-26T18:27:38.708Z,15.83
2019-04-26T18:30:11.754Z,15.81
2019-04-26T18:32:42.935Z,15.79
2019-04-26T18:35:15.303Z,15.71
2019-04-26T18:37:40.378Z,15.69
2019-04-26T18:40:09.151Z,15.67
2019-04-26T18:42:41.912Z,15.66
2019-04-26T18:45:08.666Z,15.61
2019-04-26T18:47:39.028Z,15.55
2019-04-26T18:50:08.718Z,15.52
2019-04-26T18:52:39.109Z,15.24
2019-04-26T18:55:21.503Z,15.53
2019-04-26T18:57:55.222Z,15.48
2019-04-26T19:00:26.484Z,15.46
2019-04-26T19:02:55.425Z,15.41
2019-04-26T19:05:29.567Z,15.33
2019-04-26T19:07:54.367Z,15.25
2019-04-26T19:10:29.481Z,15.23
2019-04-26T19:13:08.672Z,15.21
2019-04-26T19:15:51.569Z,15.20
2019-04-26T19:18:22.132Z,15.23
2019-04-26T19:23:42.943Z,15.16
2019-04-26T19:26:13.799Z,15.09
2019-04-26T19:28:44.380Z,15.01
2019-04-26T19:31:12.865Z,14.95
2019-04-26T19:33:42.785Z,14.90
2019-04-26T19:36:13.601Z,14.89
2019-04-26T19:38:45.245Z,14.93
2019-04-26T19:42:13.069Z,14.90
2019-04-26T19:44:43.905Z,14.90
2019-04-26T19:47:23.239Z,14.89
2019-04-26T19:49:56.637Z,14.87
2019-04-26T19:52:28.834Z,14.81
2019-04-26T19:54:59.167Z,14.76
2019-04-26T19:57:42.640Z,14.79
2019-04-26T20:00:11.802Z,14.83
2019-04-26T20:02:41.982Z,14.81
2019-04-26T20:05:11.902Z,14.79
2019-04-26T20:07:43.337Z,14.84
2019-04-26T20:10:12.875Z,14.86
2019-04-26T20:12:41.703Z,14.87
2019-04-26T20:15:25.821Z,14.88
2019-04-26T20:17:52.496Z,14.87
2019-04-26T20:20:23.236Z,14.87
2019-04-26T20:22:51.482Z,14.83
2019-04-26T20:25:22.239Z,14.81
2019-04-26T20:27:53.731Z,14.84
2019-04-26T20:30:35.203Z,14.91
2019-04-26T20:33:03.943Z,14.95
2019-04-26T20:35:32.691Z,14.92
2019-04-26T20:38:07.199Z,14.93
2019-04-26T20:40:35.940Z,14.92
2019-04-26T20:43:06.879Z,14.90
2019-04-26T20:45:41.481Z,14.89
2019-04-26T20:48:05.885Z,14.84
2019-04-26T20:50:36.865Z,14.79
2019-04-26T20:53:05.585Z,14.74
2019-04-26T20:55:34.701Z,14.67
2019-04-26T20:58:05.709Z,14.61
2019-04-26T21:00:36.440Z,14.52
2019-04-26T21:03:06.351Z,14.48
2019-04-26T21:05:46.052Z,14.50
2019-04-26T21:08:12.875Z,14.45
2019-04-26T21:10:41.854Z,14.45
2019-04-26T21:13:12.219Z,14.44
2019-04-26T21:15:53.524Z,14.40
2019-04-26T21:18:12.426Z,14.39
2019-04-26T21:20:42.486Z,14.38
2019-04-26T21:23:13.331Z,14.41
2019-04-26T21:25:43.599Z,14.39
2019-04-26T21:28:17.101Z,14.37
2019-04-26T21:31:03.434Z,14.36
2019-04-26T21:33:46.317Z,14.38
2019-04-26T21:36:19.809Z,14.38
2019-04-26T21:38:50.161Z,14.38
2019-04-26T21:41:21.179Z,14.40
2019-04-26T21:43:50.405Z,14.29
2019-04-26T21:46:20.234Z,14.22
2019-04-26T21:48:50.562Z,14.21
2019-04-26T21:51:19.352Z,14.23
2019-04-26T21:53:48.085Z,14.17
2019-04-26T21:56:16.854Z,14.14
2019-04-26T21:58:46.136Z,14.15
2019-04-26T22:01:19.311Z,14.12
2019-04-26T22:03:54.313Z,14.10
2019-04-26T22:06:19.793Z,14.02
2019-04-26T22:08:58.705Z,13.94
2019-04-26T22:11:25.529Z,13.88
2019-04-26T22:14:05.050Z,13.79
2019-04-26T22:16:53.036Z,13.76
2019-04-26T22:19:27.892Z,13.71
2019-04-26T22:22:15.114Z,13.70
2019-04-26T22:24:46.153Z,13.69
2019-04-26T22:27:17.420Z,13.73
2019-04-26T22:29:47.655Z,13.81
2019-04-26T22:32:19.349Z,13.87
2019-04-26T22:34:48.072Z,13.90
2019-04-26T22:37:29.661Z,13.91
2019-04-26T22:39:49.978Z,13.47
2019-04-26T22:42:19.045Z,13.91
2019-04-26T22:45:03.263Z,13.90
2019-04-26T22:47:40.673Z,13.89
2019-04-26T22:50:04.531Z,13.87
2019-04-26T22:52:33.497Z,13.89
2019-04-26T22:55:04.818Z,13.88
2019-04-26T22:57:36.389Z,13.88
2019-04-26T23:00:07.017Z,13.91
2019-04-26T23:02:38.893Z,13.86
2019-04-26T23:05:07.941Z,13.84
2019-04-26T23:07:36.792Z,13.86
2019-04-26T23:10:07.978Z,13.78
2019-04-26T23:12:41.170Z,13.60
2019-04-26T23:15:31.040Z,13.50
2019-04-26T23:21:11.954Z,13.55
2019-04-26T23:23:41.031Z,13.60
2019-04-26T23:26:09.989Z,13.66
2019-04-26T23:28:38.722Z,13.59
2019-04-26T23:31:09.117Z,13.61
2019-04-26T23:33:37.929Z,13.64
2019-04-26T23:36:06.644Z,13.64
2019-04-26T23:38:37.366Z,13.64
2019-04-26T23:41:07.371Z,13.68
2019-04-26T23:43:36.204Z,13.66
2019-04-26T23:46:07.559Z,13.63
2019-04-26T23:48:36.579Z,13.63
2019-04-26T23:51:08.369Z,13.62
2019-04-26T23:53:35.975Z,13.62
2019-04-26T23:56:04.824Z,13.67
2019-04-26T23:58:33.569Z,13.43
